createdAt,value
2018-04-26T00:00:29.103Z,0
2018-04-26T00:01:43.168Z,0
2018-04-26T00:02:57.571Z,0
2018-04-26T00:04:12.133Z,0
2018-04-26T00:05:26.668Z,0
2018-04-26T00:06:40.443Z,0
2018-04-26T00:07:54.369Z,0
2018-04-26T00:09:08.629Z,0
2018-04-26T00:10:23.061Z,0
2018-04-26T00:11:37.576Z,0
2018-04-26T00:12:52.202Z,0
2018-04-26T00:14:06.459Z,0
2018-04-26T00:15:20.457Z,0
2018-04-26T00:16:35.208Z,0
2018-04-26T00:17:49.110Z,0
2018-04-26T00:19:08.425Z,0
2018-04-26T00:20:22.786Z,0
2018-04-26T00:21:36.570Z,0
2018-04-26T00:22:51.254Z,0
2018-04-26T00:24:05.871Z,0
2018-04-26T00:25:20.546Z,0
2018-04-26T00:26:34.068Z,0
2018-04-26T00:27:47.989Z,0
2018-04-26T00:29:02.526Z,0
2018-04-26T00:30:17.156Z,0
2018-04-26T00:31:31.734Z,0
2018-04-26T00:32:45.406Z,0
2018-04-26T00:33:59.427Z,0
2018-04-26T00:35:14.322Z,0
2018-04-26T00:36:28.489Z,0
2018-04-26T00:37:42.634Z,0
2018-04-26T00:38:57.374Z,0
2018-04-26T00:40:11.552Z,0
2018-04-26T00:41:26.276Z,0
2018-04-26T00:42:40.196Z,0
2018-04-26T00:43:55.014Z,0
2018-04-26T00:45:09.401Z,0
2018-04-26T00:46:23.428Z,0
2018-04-26T00:47:37.481Z,0
2018-04-26T00:48:51.278Z,0
2018-04-26T00:50:04.937Z,0
2018-04-26T00:51:18.958Z,0
2018-04-26T00:52:33.356Z,0
2018-04-26T00:53:56.257Z,0
2018-04-26T00:55:10.459Z,0
2018-04-26T00:56:24.250Z,0
2018-04-26T00:57:38.768Z,0
2018-04-26T00:58:52.839Z,0
2018-04-26T01:00:07.242Z,0
2018-04-26T01:01:21.513Z,0
2018-04-26T01:02:35.518Z,0
2018-04-26T01:03:50.337Z,0
2018-04-26T01:05:04.810Z,0
2018-04-26T01:06:18.868Z,0
2018-04-26T01:07:33.061Z,0
2018-04-26T01:08:47.193Z,0
2018-04-26T01:10:01.359Z,0
2018-04-26T01:11:15.876Z,0
2018-04-26T01:12:29.868Z,0
2018-04-26T01:13:44.413Z,0
2018-04-26T01:14:58.841Z,0
2018-04-26T01:16:12.904Z,0
2018-04-26T01:17:27.615Z,0
2018-04-26T01:18:41.649Z,0
2018-04-26T01:19:55.854Z,0
2018-04-26T01:21:10.383Z,0
2018-04-26T01:22:25.045Z,0
2018-04-26T01:23:39.707Z,0
2018-04-26T01:24:54.126Z,0
2018-04-26T01:26:08.133Z,0
2018-04-26T01:27:22.691Z,0
2018-04-26T01:28:37.277Z,0
2018-04-26T01:29:51.433Z,0
2018-04-26T01:31:05.645Z,0
2018-04-26T01:32:20.043Z,0
2018-04-26T01:33:34.435Z,0
2018-04-26T01:34:48.826Z,0
2018-04-26T01:36:03.322Z,0
2018-04-26T01:37:17.446Z,0
2018-04-26T01:38:31.232Z,0
2018-04-26T01:39:45.140Z,0
2018-04-26T01:40:59.926Z,0
2018-04-26T01:42:14.587Z,0
2018-04-26T01:43:28.105Z,0
2018-04-26T01:44:41.820Z,0
2018-04-26T01:45:55.145Z,0
2018-04-26T01:47:09.485Z,0
2018-04-26T01:48:23.515Z,0
2018-04-26T01:49:38.066Z,0
2018-04-26T01:50:51.827Z,0
2018-04-26T01:52:05.498Z,0
2018-04-26T01:53:19.517Z,0
2018-04-26T01:54:33.563Z,0
2018-04-26T01:55:47.588Z,0
2018-04-26T01:57:01.743Z,0
2018-04-26T01:58:16.000Z,0
2018-04-26T01:59:29.969Z,0
2018-04-26T02:00:44.811Z,0
2018-04-26T02:01:58.976Z,0
2018-04-26T02:03:13.611Z,0
2018-04-26T02:04:27.500Z,0
2018-04-26T02:05:41.821Z,0
2018-04-26T02:06:56.226Z,0
2018-04-26T02:08:10.276Z,0
2018-04-26T02:09:24.448Z,0
2018-04-26T02:10:39.207Z,0
2018-04-26T02:11:52.869Z,0
2018-04-26T02:13:07.425Z,0
2018-04-26T02:14:21.592Z,0
2018-04-26T02:15:35.770Z,0
2018-04-26T02:16:49.937Z,0
2018-04-26T02:18:04.238Z,0
2018-04-26T02:19:18.582Z,0
2018-04-26T02:20:33.003Z,0
2018-04-26T02:21:47.015Z,0
2018-04-26T02:23:00.791Z,0
2018-04-26T02:24:15.392Z,0
2018-04-26T02:25:30.382Z,0
2018-04-26T02:26:44.802Z,0
2018-04-26T02:27:58.631Z,0
2018-04-26T02:29:12.349Z,0
2018-04-26T02:30:26.125Z,0
2018-04-26T02:31:40.201Z,0
2018-04-26T02:32:54.167Z,0
2018-04-26T02:34:08.378Z,0
2018-04-26T02:35:22.174Z,0
2018-04-26T02:36:36.020Z,0
2018-04-26T02:37:50.300Z,0
2018-04-26T02:39:04.401Z,0
2018-04-26T02:40:18.158Z,0
2018-04-26T02:41:31.796Z,0
2018-04-26T02:42:45.341Z,0
2018-04-26T02:43:59.281Z,0
2018-04-26T02:45:13.513Z,0
2018-04-26T02:46:27.698Z,0
2018-04-26T02:47:42.219Z,0
2018-04-26T02:48:56.619Z,0
2018-04-26T02:50:11.396Z,0
2018-04-26T02:51:25.779Z,0
2018-04-26T02:52:39.554Z,0
2018-04-26T02:53:53.669Z,0
2018-04-26T02:55:07.949Z,0
2018-04-26T02:56:22.635Z,0
2018-04-26T02:57:36.919Z,0
2018-04-26T02:58:50.575Z,0
2018-04-26T03:00:04.707Z,0
2018-04-26T03:01:18.626Z,0
2018-04-26T03:02:33.155Z,0
2018-04-26T03:03:47.577Z,0
2018-04-26T03:05:01.832Z,0
2018-04-26T03:06:16.453Z,0
2018-04-26T03:07:30.225Z,0
2018-04-26T03:08:44.393Z,0
2018-04-26T03:09:58.185Z,0
2018-04-26T03:11:12.262Z,0
2018-04-26T03:12:26.757Z,0
2018-04-26T03:13:40.761Z,0
2018-04-26T03:14:55.545Z,0
2018-04-26T03:16:09.211Z,0
2018-04-26T03:17:23.142Z,0
2018-04-26T03:18:37.897Z,0
2018-04-26T03:19:51.688Z,0
2018-04-26T03:21:06.116Z,0
2018-04-26T03:22:20.615Z,0
2018-04-26T03:23:34.958Z,0
2018-04-26T03:24:49.189Z,0
2018-04-26T03:26:03.407Z,0
2018-04-26T03:27:17.935Z,0
2018-04-26T03:28:31.937Z,0
2018-04-26T03:29:46.489Z,0
2018-04-26T03:31:00.818Z,0
2018-04-26T03:32:15.410Z,0
2018-04-26T03:33:30.036Z,0
2018-04-26T03:34:44.284Z,4
2018-04-26T03:35:58.374Z,4
2018-04-26T03:37:12.624Z,0
2018-04-26T03:38:27.157Z,4
2018-04-26T03:39:42.075Z,0
2018-04-26T03:40:56.464Z,4
2018-04-26T03:42:10.977Z,4
2018-04-26T03:43:25.635Z,4
2018-04-26T03:44:39.920Z,4
2018-04-26T03:45:54.113Z,8
2018-04-26T03:47:08.632Z,8
2018-04-26T03:48:23.059Z,8
2018-04-26T03:49:37.389Z,16
2018-04-26T03:50:50.844Z,20
2018-04-26T03:52:04.898Z,20
2018-04-26T03:53:18.340Z,24
2018-04-26T03:54:32.105Z,28
2018-04-26T03:55:46.251Z,32
2018-04-26T03:57:00.721Z,40
2018-04-26T03:58:15.213Z,44
2018-04-26T03:59:29.471Z,48
2018-04-26T04:00:43.843Z,60
2018-04-26T04:01:58.128Z,68
2018-04-26T04:03:12.334Z,76
2018-04-26T04:04:27.104Z,84
2018-04-26T04:05:41.215Z,100
2018-04-26T04:06:55.943Z,112
2018-04-26T04:08:10.362Z,124
2018-04-26T04:09:24.403Z,140
2018-04-26T04:10:38.188Z,160
2018-04-26T04:11:52.453Z,180
2018-04-26T04:13:06.645Z,200
2018-04-26T04:14:21.148Z,224
2018-04-26T04:15:35.111Z,248
2018-04-26T04:16:48.915Z,272
2018-04-26T04:18:02.591Z,296
2018-04-26T04:19:16.880Z,324
2018-04-26T04:20:30.584Z,352
2018-04-26T04:21:45.074Z,380
2018-04-26T04:22:58.506Z,416
2018-04-26T04:24:13.065Z,456
2018-04-26T04:25:26.990Z,504
2018-04-26T04:26:41.600Z,536
2018-04-26T04:27:55.605Z,564
2018-04-26T04:29:09.673Z,596
2018-04-26T04:30:23.608Z,640
2018-04-26T04:31:37.214Z,688
2018-04-26T04:32:51.601Z,744
2018-04-26T04:34:05.203Z,784
2018-04-26T04:35:20.169Z,828
2018-04-26T04:36:34.342Z,872
2018-04-26T04:37:49.088Z,920
2018-04-26T04:39:03.368Z,968
2018-04-26T04:40:17.277Z,1032
2018-04-26T04:41:31.593Z,1112
2018-04-26T04:42:45.744Z,1188
2018-04-26T04:43:59.748Z,1280
2018-04-26T04:45:14.025Z,1404
2018-04-26T04:46:28.805Z,1572
2018-04-26T04:47:42.848Z,1712
2018-04-26T04:48:56.876Z,1224
2018-04-26T04:50:10.572Z,1244
2018-04-26T04:51:24.872Z,2056
2018-04-26T04:52:39.516Z,2324
2018-04-26T04:53:54.074Z,2316
2018-04-26T04:55:08.430Z,2064
2018-04-26T04:56:22.958Z,2228
2018-04-26T04:57:37.344Z,2584
2018-04-26T04:58:51.218Z,2636
2018-04-26T05:00:05.214Z,2424
2018-04-26T05:01:19.038Z,1976
2018-04-26T05:02:33.461Z,2420
2018-04-26T05:03:47.513Z,2456
2018-04-26T05:05:02.164Z,2188
2018-04-26T05:06:16.444Z,2124
2018-04-26T05:07:30.216Z,2568
2018-04-26T05:08:43.822Z,2588
2018-04-26T05:09:58.400Z,2268
2018-04-26T05:11:13.426Z,2000
2018-04-26T05:12:27.398Z,1784
2018-04-26T05:13:41.913Z,1844
2018-04-26T05:14:55.778Z,2112
2018-04-26T05:16:10.030Z,1968
2018-04-26T05:17:24.580Z,2484
2018-04-26T05:18:38.480Z,2560
2018-04-26T05:19:52.050Z,2560
2018-04-26T05:21:05.932Z,2564
2018-04-26T05:22:19.883Z,2580
2018-04-26T05:23:33.927Z,2612
2018-04-26T05:24:47.839Z,2624
2018-04-26T05:26:01.680Z,2736
2018-04-26T05:27:15.715Z,2836
2018-04-26T05:28:30.554Z,3140
2018-04-26T05:29:44.538Z,3700
2018-04-26T05:30:59.253Z,3800
2018-04-26T05:32:13.176Z,3492
2018-04-26T05:33:27.546Z,3188
2018-04-26T05:34:41.981Z,3108
2018-04-26T05:35:55.778Z,2836
2018-04-26T05:37:09.763Z,2428
2018-04-26T05:38:24.005Z,2040
2018-04-26T05:39:38.266Z,1840
2018-04-26T05:40:52.189Z,1812
2018-04-26T05:42:05.874Z,1860
2018-04-26T05:43:20.529Z,2088
2018-04-26T05:44:35.203Z,2424
2018-04-26T05:45:49.326Z,2528
2018-04-26T05:47:03.718Z,2548
2018-04-26T05:48:18.437Z,2552
2018-04-26T05:49:33.109Z,2532
2018-04-26T05:50:46.936Z,2496
2018-04-26T05:52:01.332Z,2452
2018-04-26T05:53:15.629Z,2424
2018-04-26T05:54:29.852Z,2412
2018-04-26T05:55:44.454Z,2404
2018-04-26T05:56:59.181Z,2384
2018-04-26T05:58:13.935Z,2356
2018-04-26T05:59:28.327Z,2336
2018-04-26T06:00:42.722Z,2332
2018-04-26T06:01:57.000Z,2328
2018-04-26T06:03:11.854Z,2324
2018-04-26T06:04:26.522Z,2328
2018-04-26T06:05:40.504Z,2324
2018-04-26T06:06:54.738Z,2308
2018-04-26T06:08:09.299Z,2312
2018-04-26T06:09:23.482Z,2308
2018-04-26T06:10:37.749Z,2308
2018-04-26T06:11:51.572Z,2304
2018-04-26T06:13:05.411Z,2308
2018-04-26T06:14:19.363Z,2316
2018-04-26T06:15:43.239Z,2320
2018-04-26T06:16:57.668Z,2320
2018-04-26T06:18:12.261Z,2320
2018-04-26T06:19:27.011Z,2320
2018-04-26T06:20:41.278Z,2324
2018-04-26T06:21:55.130Z,2328
2018-04-26T06:23:09.167Z,2340
2018-04-26T06:24:23.091Z,2348
2018-04-26T06:25:37.535Z,2348
2018-04-26T06:26:51.853Z,2360
2018-04-26T06:28:06.654Z,2364
2018-04-26T06:29:21.097Z,2360
2018-04-26T06:30:35.375Z,2376
2018-04-26T06:31:49.632Z,2376
2018-04-26T06:33:03.899Z,2376
2018-04-26T06:34:17.878Z,2384
2018-04-26T06:35:32.211Z,2396
2018-04-26T06:36:46.323Z,2392
2018-04-26T06:38:01.181Z,2400
2018-04-26T06:39:15.581Z,2400
2018-04-26T06:40:30.136Z,2388
2018-04-26T06:41:44.047Z,2380
2018-04-26T06:42:58.554Z,2380
2018-04-26T06:44:12.126Z,2372
2018-04-26T06:45:26.440Z,2368
2018-04-26T06:46:40.843Z,2372
2018-04-26T06:47:55.898Z,2368
2018-04-26T06:49:10.307Z,2368
2018-04-26T06:50:24.652Z,2380
2018-04-26T06:51:38.839Z,2380
2018-04-26T06:52:53.607Z,2380
2018-04-26T06:54:07.561Z,2380
2018-04-26T06:55:21.915Z,2408
2018-04-26T06:56:35.852Z,2424
2018-04-26T06:57:49.765Z,2428
2018-04-26T06:59:03.736Z,2424
2018-04-26T07:00:17.846Z,2436
2018-04-26T07:01:31.636Z,2452
2018-04-26T07:02:45.403Z,2456
2018-04-26T07:04:00.051Z,2472
2018-04-26T07:05:14.588Z,2560
2018-04-26T07:06:28.103Z,2624
2018-04-26T07:07:42.615Z,2624
2018-04-26T07:08:57.141Z,2668
2018-04-26T07:10:10.930Z,2712
2018-04-26T07:11:24.411Z,2804
2018-04-26T07:12:38.434Z,2912
2018-04-26T07:13:52.717Z,3084
2018-04-26T07:15:06.986Z,3544
2018-04-26T07:16:20.922Z,3876
2018-04-26T07:17:34.766Z,4304
2018-04-26T07:18:48.976Z,4004
2018-04-26T07:20:03.497Z,4564
2018-04-26T07:21:17.430Z,4564
2018-04-26T07:22:31.222Z,4464
2018-04-26T07:23:45.440Z,4676
2018-04-26T07:24:59.249Z,4904
2018-04-26T07:26:13.194Z,3764
2018-04-26T07:27:27.719Z,3736
2018-04-26T07:28:41.901Z,3888
2018-04-26T07:29:56.361Z,4192
2018-04-26T07:31:10.318Z,4444
2018-04-26T07:32:24.603Z,4288
2018-04-26T07:33:38.825Z,6272
2018-04-26T07:34:53.361Z,6588
2018-04-26T07:36:07.912Z,6840
2018-04-26T07:37:22.035Z,5176
2018-04-26T07:38:36.195Z,5516
2018-04-26T07:39:50.453Z,5280
2018-04-26T07:41:03.941Z,5688
2018-04-26T07:42:18.238Z,5992
2018-04-26T07:43:32.500Z,6676
2018-04-26T07:44:47.328Z,6824
2018-04-26T07:46:01.605Z,7048
2018-04-26T07:47:15.652Z,4924
2018-04-26T07:48:29.870Z,3192
2018-04-26T07:49:43.944Z,3852
2018-04-26T07:50:57.928Z,4872
2018-04-26T07:52:12.454Z,5924
2018-04-26T07:53:26.405Z,5916
2018-04-26T07:54:41.197Z,4940
2018-04-26T07:55:55.309Z,4232
2018-04-26T07:57:09.186Z,3552
2018-04-26T07:58:22.377Z,3732
2018-04-26T07:59:47.205Z,3904
2018-04-26T08:01:01.756Z,4172
2018-04-26T08:02:16.263Z,5436
2018-04-26T08:03:30.477Z,6004
2018-04-26T08:04:45.008Z,4288
2018-04-26T08:05:58.906Z,3244
2018-04-26T08:07:13.449Z,3136
2018-04-26T08:08:27.868Z,3296
2018-04-26T08:09:41.682Z,3556
2018-04-26T08:10:56.006Z,3884
2018-04-26T08:12:10.553Z,4836
2018-04-26T08:13:24.740Z,6152
2018-04-26T08:14:39.056Z,5924
2018-04-26T08:15:53.725Z,5672
2018-04-26T08:17:07.796Z,6000
2018-04-26T08:18:22.486Z,5416
2018-04-26T08:19:36.900Z,4824
2018-04-26T08:20:51.087Z,5536
2018-04-26T08:22:05.405Z,4588
2018-04-26T08:23:19.812Z,5008
2018-04-26T08:24:33.612Z,5944
2018-04-26T08:25:48.078Z,5796
2018-04-26T08:27:02.265Z,6528
2018-04-26T08:28:16.798Z,6112
2018-04-26T08:29:31.061Z,6112
2018-04-26T08:30:45.598Z,5712
2018-04-26T08:32:00.183Z,5556
2018-04-26T08:33:14.616Z,4696
2018-04-26T08:34:28.423Z,4476
2018-04-26T08:35:42.352Z,4892
2018-04-26T08:36:57.122Z,6088
2018-04-26T08:38:11.993Z,6604
2018-04-26T08:39:26.299Z,6036
2018-04-26T08:40:40.250Z,6064
2018-04-26T08:41:54.055Z,5448
2018-04-26T08:43:08.062Z,5352
2018-04-26T08:44:22.204Z,5136
2018-04-26T08:45:36.539Z,5692
2018-04-26T08:46:50.697Z,6256
2018-04-26T08:48:04.943Z,6252
2018-04-26T08:49:19.266Z,5132
2018-04-26T08:50:33.616Z,3848
2018-04-26T08:51:48.187Z,4144
2018-04-26T08:53:02.135Z,4344
2018-04-26T08:54:16.458Z,4216
2018-04-26T08:55:30.150Z,3368
2018-04-26T08:56:44.211Z,3068
2018-04-26T08:57:57.923Z,2884
2018-04-26T08:59:12.268Z,3448
2018-04-26T09:00:25.941Z,3860
2018-04-26T09:08:41.621Z,6300
2018-04-26T09:09:55.331Z,6836
2018-04-26T09:11:08.908Z,7288
2018-04-26T09:12:23.520Z,6488
2018-04-26T09:13:38.034Z,5444
2018-04-26T09:14:52.253Z,5308
2018-04-26T09:16:07.285Z,5184
2018-04-26T09:17:21.465Z,5712
2018-04-26T09:18:35.141Z,6656
2018-04-26T09:19:49.272Z,5756
2018-04-26T09:21:03.842Z,6356
2018-04-26T09:22:17.999Z,6180
2018-04-26T09:23:32.458Z,5456
2018-04-26T09:24:46.729Z,5616
2018-04-26T09:26:01.119Z,4680
2018-04-26T09:27:15.317Z,4980
2018-04-26T09:28:29.622Z,5520
2018-04-26T09:29:43.817Z,5276
2018-04-26T09:30:58.331Z,4696
2018-04-26T09:32:12.275Z,4440
2018-04-26T09:33:26.820Z,4636
2018-04-26T09:34:40.814Z,3600
2018-04-26T09:35:54.870Z,4148
2018-04-26T09:37:09.085Z,3712
2018-04-26T09:38:23.131Z,4732
2018-04-26T09:39:37.506Z,5512
2018-04-26T09:40:51.937Z,5108
2018-04-26T09:42:05.900Z,4388
2018-04-26T09:43:20.127Z,4748
2018-04-26T09:44:34.601Z,4876
2018-04-26T09:45:48.862Z,5096
2018-04-26T09:47:03.081Z,5092
2018-04-26T09:48:17.126Z,4728
2018-04-26T09:49:31.914Z,5356
2018-04-26T09:50:46.523Z,5652
2018-04-26T09:52:00.762Z,5496
2018-04-26T09:53:14.585Z,5760
2018-04-26T09:54:28.840Z,5344
2018-04-26T09:55:43.056Z,3896
2018-04-26T09:56:57.051Z,3568
2018-04-26T09:58:11.368Z,4152
2018-04-26T10:04:05.042Z,4512
2018-04-26T10:05:22.705Z,4416
2018-04-26T10:06:37.782Z,4136
2018-04-26T10:07:52.357Z,4036
2018-04-26T10:09:07.665Z,4036
2018-04-26T10:10:22.942Z,3836
2018-04-26T10:11:38.430Z,3828
2018-04-26T10:12:53.773Z,4292
2018-04-26T10:14:08.883Z,4792
2018-04-26T10:15:23.959Z,4916
2018-04-26T10:16:38.316Z,4912
2018-04-26T10:17:53.792Z,5104
2018-04-26T10:19:08.929Z,5172
2018-04-26T10:20:24.132Z,5572
2018-04-26T10:21:38.411Z,5908
2018-04-26T10:22:53.107Z,5468
2018-04-26T10:24:08.271Z,4784
2018-04-26T10:25:23.259Z,5360
2018-04-26T10:26:37.388Z,6348
2018-04-26T10:27:52.779Z,5980
2018-04-26T10:29:06.836Z,6472
2018-04-26T10:30:22.448Z,6288
2018-04-26T10:31:37.890Z,6084
2018-04-26T10:32:52.986Z,5552
2018-04-26T10:34:08.131Z,4704
2018-04-26T10:35:22.820Z,4060
2018-04-26T10:36:37.975Z,3712
2018-04-26T10:37:53.326Z,3916
2018-04-26T10:39:07.938Z,4436
2018-04-26T10:40:22.934Z,4220
2018-04-26T10:41:37.480Z,3636
2018-04-26T10:42:52.423Z,3304
2018-04-26T10:44:06.899Z,3916
2018-04-26T10:45:22.444Z,3632
2018-04-26T10:46:37.196Z,3136
2018-04-26T10:47:52.498Z,2884
2018-04-26T10:49:07.696Z,2788
2018-04-26T10:50:22.263Z,2764
2018-04-26T10:51:37.154Z,2712
2018-04-26T10:52:52.031Z,2652
2018-04-26T10:54:07.664Z,2628
2018-04-26T10:55:22.090Z,2624
2018-04-26T10:56:36.922Z,2696
2018-04-26T10:57:51.783Z,2948
2018-04-26T10:59:07.166Z,3328
2018-04-26T11:00:23.265Z,3800
2018-04-26T11:01:38.934Z,4884
2018-04-26T11:02:54.063Z,4588
2018-04-26T11:04:09.446Z,3548
2018-04-26T11:05:40.024Z,3032
2018-04-26T11:06:54.718Z,3064
2018-04-26T11:08:09.471Z,2496
2018-04-26T11:09:24.088Z,2652
2018-04-26T11:10:38.851Z,2840
2018-04-26T11:11:53.089Z,2436
2018-04-26T11:13:08.709Z,2528
2018-04-26T11:14:24.191Z,3000
2018-04-26T11:15:38.876Z,2460
2018-04-26T11:16:54.024Z,2232
2018-04-26T11:18:09.521Z,2256
2018-04-26T11:19:25.030Z,2336
2018-04-26T11:20:44.273Z,2760
2018-04-26T11:21:59.202Z,3316
2018-04-26T11:23:13.600Z,3416
2018-04-26T11:24:28.833Z,2764
2018-04-26T11:25:44.495Z,3168
2018-04-26T11:26:59.349Z,2688
2018-04-26T11:28:14.611Z,2916
2018-04-26T11:29:30.109Z,3096
2018-04-26T11:30:46.043Z,2704
2018-04-26T11:32:01.365Z,3000
2018-04-26T11:33:16.858Z,2952
2018-04-26T11:34:31.130Z,2936
2018-04-26T11:35:46.465Z,2884
2018-04-26T11:37:01.573Z,2480
2018-04-26T11:38:17.296Z,2520
2018-04-26T11:39:31.966Z,2584
2018-04-26T11:40:46.758Z,2668
2018-04-26T11:42:01.135Z,2968
2018-04-26T11:43:17.120Z,3152
2018-04-26T11:44:31.597Z,3016
2018-04-26T11:45:46.501Z,3460
2018-04-26T11:47:01.205Z,3616
2018-04-26T11:48:16.059Z,4044
2018-04-26T11:49:30.735Z,4444
2018-04-26T11:50:47.099Z,4716
2018-04-26T11:52:02.172Z,5108
2018-04-26T11:53:16.946Z,5044
2018-04-26T11:54:31.437Z,4632
2018-04-26T11:55:47.115Z,4036
2018-04-26T11:57:02.577Z,5012
2018-04-26T11:58:19.510Z,5580
2018-04-26T11:59:35.168Z,5508
2018-04-26T12:00:51.482Z,5676
2018-04-26T12:02:06.488Z,5288
2018-04-26T12:03:22.019Z,5068
2018-04-26T12:04:37.187Z,4012
2018-04-26T12:05:51.683Z,3660
2018-04-26T12:07:06.893Z,3284
2018-04-26T12:08:22.015Z,3332
2018-04-26T12:09:37.275Z,3528
2018-04-26T12:10:52.421Z,3840
2018-04-26T12:12:07.442Z,3804
2018-04-26T12:13:23.565Z,3128
2018-04-26T12:14:39.637Z,2972
2018-04-26T12:15:55.556Z,2996
2018-04-26T12:17:10.281Z,3496
2018-04-26T12:18:26.141Z,3424
2018-04-26T12:19:41.081Z,3216
2018-04-26T12:20:55.680Z,3280
2018-04-26T12:22:11.016Z,3768
2018-04-26T12:23:25.793Z,3268
2018-04-26T12:24:40.765Z,3536
2018-04-26T12:25:56.457Z,3724
2018-04-26T12:27:11.630Z,3648
2018-04-26T12:28:27.788Z,3576
2018-04-26T12:29:42.784Z,3324
2018-04-26T12:30:57.157Z,3188
2018-04-26T12:32:12.103Z,3288
2018-04-26T12:33:26.852Z,3700
2018-04-26T12:34:41.326Z,4040
2018-04-26T12:35:56.443Z,4228
2018-04-26T12:37:11.921Z,3840
2018-04-26T12:38:27.260Z,3584
2018-04-26T12:39:42.463Z,2872
2018-04-26T12:40:56.774Z,2584
2018-04-26T12:42:13.165Z,2520
2018-04-26T12:43:29.335Z,2472
2018-04-26T12:44:44.905Z,2472
2018-04-26T12:46:01.022Z,2884
2018-04-26T12:47:15.333Z,3196
2018-04-26T12:48:31.792Z,3428
2018-04-26T12:49:47.629Z,3552
2018-04-26T12:51:03.115Z,3108
2018-04-26T12:52:17.986Z,3144
2018-04-26T12:53:33.885Z,2712
2018-04-26T12:54:48.018Z,2836
2018-04-26T12:56:03.406Z,2480
2018-04-26T12:57:18.085Z,2440
2018-04-26T12:58:33.387Z,2624
2018-04-26T12:59:49.439Z,2528
2018-04-26T13:01:04.574Z,2456
2018-04-26T13:02:19.257Z,2092
2018-04-26T13:03:34.980Z,2096
2018-04-26T13:04:50.357Z,1984
2018-04-26T13:06:05.219Z,1972
2018-04-26T13:07:19.827Z,2012
2018-04-26T13:08:35.153Z,2020
2018-04-26T13:09:50.113Z,2404
2018-04-26T13:11:04.833Z,2856
2018-04-26T13:12:20.503Z,3372
2018-04-26T13:13:36.964Z,3396
2018-04-26T13:14:51.396Z,3216
2018-04-26T13:16:06.836Z,3376
2018-04-26T13:17:22.046Z,3564
2018-04-26T13:18:37.772Z,3344
2018-04-26T13:19:53.776Z,2880
2018-04-26T13:21:08.775Z,2792
2018-04-26T13:22:24.363Z,2788
2018-04-26T13:23:39.685Z,2396
2018-04-26T13:24:53.967Z,2092
2018-04-26T13:26:09.078Z,1940
2018-04-26T13:27:23.808Z,1848
2018-04-26T13:28:39.032Z,1796
2018-04-26T13:29:54.821Z,1776
2018-04-26T13:31:09.422Z,1776
2018-04-26T13:32:23.925Z,1808
2018-04-26T13:33:39.906Z,1856
2018-04-26T13:34:55.337Z,2004
2018-04-26T13:36:10.539Z,2364
2018-04-26T13:37:25.024Z,2672
2018-04-26T13:38:40.572Z,2656
2018-04-26T13:39:55.812Z,2944
2018-04-26T13:41:10.517Z,2816
2018-04-26T13:42:25.194Z,3020
2018-04-26T13:43:40.375Z,3460
2018-04-26T13:44:54.919Z,3844
2018-04-26T13:46:10.148Z,4176
2018-04-26T13:47:25.347Z,4184
2018-04-26T13:48:40.885Z,4204
2018-04-26T13:49:55.653Z,4124
2018-04-26T13:51:10.533Z,4076
2018-04-26T13:52:25.606Z,4304
2018-04-26T13:53:40.773Z,4124
2018-04-26T13:54:55.337Z,3640
2018-04-26T13:56:10.206Z,3368
2018-04-26T13:57:25.828Z,3020
2018-04-26T13:58:41.698Z,2752
2018-04-26T13:59:57.141Z,2800
2018-04-26T14:01:12.165Z,2616
2018-04-26T14:02:27.018Z,2288
2018-04-26T14:03:41.934Z,2360
2018-04-26T14:04:56.527Z,2020
2018-04-26T14:06:12.218Z,1888
2018-04-26T14:07:28.396Z,1956
2018-04-26T14:08:44.029Z,2108
2018-04-26T14:09:59.235Z,2292
2018-04-26T14:11:25.394Z,2608
2018-04-26T14:12:39.990Z,2924
2018-04-26T14:13:55.283Z,3200
2018-04-26T14:15:10.518Z,3924
2018-04-26T14:16:25.925Z,4224
2018-04-26T14:17:41.456Z,4388
2018-04-26T14:18:57.049Z,4148
2018-04-26T14:20:11.759Z,3480
2018-04-26T14:21:26.901Z,3284
2018-04-26T14:22:41.696Z,2976
2018-04-26T14:23:56.880Z,3000
2018-04-26T14:25:12.558Z,3280
2018-04-26T14:26:27.610Z,3796
2018-04-26T14:27:42.926Z,3808
2018-04-26T14:28:57.763Z,3704
2018-04-26T14:30:13.469Z,3488
2018-04-26T14:31:31.217Z,3308
2018-04-26T14:32:46.243Z,3420
2018-04-26T14:34:01.309Z,3020
2018-04-26T14:35:16.289Z,2696
2018-04-26T14:36:30.838Z,2324
2018-04-26T14:37:45.524Z,2116
2018-04-26T14:38:59.968Z,2084
2018-04-26T14:40:15.647Z,2072
2018-04-26T14:41:30.847Z,2060
2018-04-26T14:42:45.720Z,2228
2018-04-26T14:44:01.140Z,2320
2018-04-26T14:45:16.174Z,2644
2018-04-26T14:46:47.124Z,2520
2018-04-26T14:48:03.323Z,2436
2018-04-26T14:49:18.276Z,2460
2018-04-26T14:50:33.591Z,2584
2018-04-26T14:51:48.066Z,3104
2018-04-26T14:53:32.565Z,3320
2018-04-26T14:55:11.182Z,3008
2018-04-26T14:56:36.779Z,3376
2018-04-26T14:57:51.674Z,3500
2018-04-26T14:59:16.472Z,2984
2018-04-26T15:00:31.247Z,2512
2018-04-26T15:01:56.742Z,2280
2018-04-26T15:04:14.797Z,2276
2018-04-26T15:05:51.585Z,2744
2018-04-26T15:07:18.201Z,2772
2018-04-26T15:08:33.280Z,2908
2018-04-26T15:09:47.950Z,3196
2018-04-26T15:11:02.507Z,3168
2018-04-26T15:12:17.863Z,2984
2018-04-26T15:13:33.137Z,3488
2018-04-26T15:14:48.227Z,3704
2018-04-26T15:16:04.026Z,3836
2018-04-26T15:17:34.701Z,3388
2018-04-26T15:18:51.025Z,3356
2018-04-26T15:20:06.877Z,3056
2018-04-26T15:21:21.606Z,2824
2018-04-26T15:22:37.150Z,3040
2018-04-26T15:24:06.796Z,3196
2018-04-26T15:25:49.258Z,2968
2018-04-26T15:27:04.219Z,2788
2018-04-26T15:28:19.180Z,2716
2018-04-26T15:29:35.249Z,2620
2018-04-26T15:30:50.299Z,2572
2018-04-26T15:32:05.501Z,2472
2018-04-26T15:33:20.715Z,2600
2018-04-26T15:34:35.931Z,2552
2018-04-26T15:35:50.340Z,2488
2018-04-26T15:37:05.581Z,2412
2018-04-26T15:38:20.273Z,2340
2018-04-26T15:39:35.146Z,2284
2018-04-26T15:40:50.299Z,2624
2018-04-26T15:42:05.346Z,2828
2018-04-26T15:44:06.746Z,2692
2018-04-26T15:45:21.921Z,2712
2018-04-26T15:46:36.401Z,2632
2018-04-26T15:47:51.471Z,2520
2018-04-26T15:49:06.739Z,2404
2018-04-26T15:50:22.348Z,2304
2018-04-26T15:51:37.315Z,2188
2018-04-26T15:52:53.800Z,2096
2018-04-26T15:54:14.560Z,1772
2018-04-26T15:55:50.402Z,1848
2018-04-26T15:57:04.848Z,1884
2018-04-26T15:58:20.322Z,1940
2018-04-26T16:00:08.089Z,1880
2018-04-26T16:01:22.408Z,1836
2018-04-26T16:02:37.266Z,1808
2018-04-26T16:04:02.527Z,1792
2018-04-26T16:05:19.837Z,1776
2018-04-26T16:07:03.381Z,1752
2018-04-26T16:08:18.801Z,1740
2018-04-26T16:09:33.754Z,1764
2018-04-26T16:10:49.489Z,1768
2018-04-26T16:12:05.366Z,1980
2018-04-26T16:13:39.919Z,1864
2018-04-26T16:15:06.425Z,1572
2018-04-26T16:16:22.173Z,1524
2018-04-26T16:17:37.205Z,1492
2018-04-26T16:18:52.013Z,1472
2018-04-26T16:20:08.383Z,1464
2018-04-26T16:21:24.234Z,1456
2018-04-26T16:22:39.022Z,1440
2018-04-26T16:23:54.461Z,1452
2018-04-26T16:25:24.331Z,1460
2018-04-26T16:26:40.152Z,1456
2018-04-26T16:28:12.229Z,1512
2018-04-26T16:29:27.631Z,1500
2018-04-26T16:30:42.688Z,1536
2018-04-26T16:31:57.618Z,1344
2018-04-26T16:33:12.704Z,1348
2018-04-26T16:34:27.825Z,1288
2018-04-26T16:35:42.908Z,1276
2018-04-26T16:37:11.257Z,1268
2018-04-26T16:38:28.790Z,1252
2018-04-26T16:39:43.001Z,1224
2018-04-26T16:41:15.945Z,1236
2018-04-26T16:42:31.738Z,1216
2018-04-26T16:43:47.071Z,1180
2018-04-26T16:45:12.599Z,1132
2018-04-26T16:46:27.853Z,1144
2018-04-26T16:47:42.837Z,1148
2018-04-26T16:48:58.446Z,1232
2018-04-26T16:50:15.247Z,1340
2018-04-26T16:51:30.189Z,1572
2018-04-26T16:53:04.704Z,1660
2018-04-26T16:54:20.414Z,1484
2018-04-26T16:55:34.800Z,1356
2018-04-26T16:56:58.555Z,1264
2018-04-26T16:58:13.937Z,1276
2018-04-26T16:59:29.180Z,1244
2018-04-26T17:00:44.248Z,1340
2018-04-26T17:01:59.495Z,1556
2018-04-26T17:03:14.436Z,1624
2018-04-26T17:04:29.419Z,1684
2018-04-26T17:05:44.399Z,1760
2018-04-26T17:07:14.418Z,1572
2018-04-26T17:08:28.736Z,1496
2018-04-26T17:10:46.785Z,1432
2018-04-26T17:12:02.507Z,1380
2018-04-26T17:13:17.522Z,1364
2018-04-26T17:14:32.557Z,1380
2018-04-26T17:15:47.337Z,1440
2018-04-26T17:17:07.759Z,1356
2018-04-26T17:18:23.420Z,1272
2018-04-26T17:19:39.489Z,1156
2018-04-26T17:20:53.932Z,1124